Time;durP1;ratioP1;P1;durP2;ratioP2;P2;SDS_P1;SDS_P2;PMS_P1;PMS_P2;Temp;Humidity;BMP_temperature;BMP_pressure;BME280_temperature;BME280_humidity;BME280_pressure;Samples;Min_cycle;Max_cycle;Signal;HPM_P1;HPM_P2
2022/04/01 00:02:10;;;;;;;20.25;9.88;;;;;;;;;;5138152;27;20103;-71
2022/04/01 00:04:37;;;;;;;20.27;9.55;;;;;;;;;;5138308;27;20106;-71
2022/04/01 00:07:03;;;;;;;20.83;9.40;;;;;;;;;;5138187;27;20159;-71
2022/04/01 00:09:29;;;;;;;26.88;9.63;;;;;;;;;;5137621;27;20022;-71
2022/04/01 00:11:55;;;;;;;24.75;11.00;;;;;;;;;;5137545;27;20109;-71
2022/04/01 00:14:20;;;;;;;32.85;11.57;;;;;;;;;;5138186;27;20105;-71
2022/04/01 00:16:46;;;;;;;27.63;10.35;;;;;;;;;;5138139;28;20393;-71
2022/04/01 00:19:13;;;;;;;32.70;10.63;;;;;;;;;;5138750;28;20019;-71
2022/04/01 00:21:39;;;;;;;25.92;11.10;;;;;;;;;;5137944;28;20038;-71
2022/04/01 00:24:06;;;;;;;36.13;13.20;;;;;;;;;;5137959;28;20030;-71
2022/04/01 00:26:32;;;;;;;43.97;13.02;;;;;;;;;;5137467;28;20017;-71
2022/04/01 00:28:58;;;;;;;42.78;13.25;;;;;;;;;;5137754;28;20181;-71
2022/04/01 00:31:23;;;;;;;30.42;9.35;;;;;;;;;;5137966;28;20021;-71
2022/04/01 00:34:15;;;;;;;30.00;9.20;;;;;;;;;;5137628;28;20118;-70
2022/04/01 00:36:36;;;;;;;31.42;8.02;;;;;;;;;;5137908;27;20023;-70
2022/04/01 00:39:02;;;;;;;31.08;8.55;;;;;;;;;;5123749;27;20431;-70
2022/04/01 00:41:28;;;;;;;26.23;8.07;;;;;;;;;;5141963;27;20027;-71
2022/04/01 00:44:16;;;;;;;20.77;7.13;;;;;;;;;;5141411;27;20336;-71
2022/04/01 00:46:43;;;;;;;23.35;8.40;;;;;;;;;;5141983;27;20027;-71
2022/04/01 00:49:09;;;;;;;28.80;7.30;;;;;;;;;;5141940;27;20023;-71
2022/04/01 00:51:37;;;;;;;27.40;9.75;;;;;;;;;;5141614;27;20109;-71
2022/04/01 00:54:05;;;;;;;31.67;9.85;;;;;;;;;;5141823;27;20467;-71
2022/04/01 00:56:32;;;;;;;26.98;9.30;;;;;;;;;;5141460;27;20034;-71
2022/04/01 00:58:58;;;;;;;45.00;14.52;;;;;;;;;;5141456;27;20015;-71
2022/04/01 01:01:24;;;;;;;40.70;17.30;;;;;;;;;;5141673;27;20027;-71
2022/04/01 01:03:50;;;;;;;41.42;20.23;;;;;;;;;;5142163;27;20023;-71
2022/04/01 01:06:18;;;;;;;63.97;36.33;;;;;;;;;;5141602;27;20106;-71
2022/04/01 01:08:44;;;;;;;66.78;37.15;;;;;;;;;;5141458;27;20015;-71
2022/04/01 01:11:10;;;;;;;90.70;53.22;;;;;;;;;;5141343;27;20019;-71
2022/04/01 01:13:37;;;;;;;89.03;55.38;;;;;;;;;;5140947;27;20033;-71
2022/04/01 01:16:03;;;;;;;61.88;34.83;;;;;;;;;;5141129;27;20019;-71
2022/04/01 01:18:29;;;;;;;59.40;33.47;;;;;;;;;;5140856;27;20344;-71
2022/04/01 01:20:55;;;;;;;52.88;32.33;;;;;;;;;;5139266;27;20033;-72
2022/04/01 01:23:30;;;;;;;109.47;59.63;;;;;;;;;;5140313;27;20109;-71
2022/04/01 01:25:57;;;;;;;67.53;31.63;;;;;;;;;;5121539;27;20019;-71
2022/04/01 01:28:25;;;;;;;50.33;26.67;;;;;;;;;;5139987;27;20104;-71
2022/04/01 01:30:50;;;;;;;46.33;20.85;;;;;;;;;;5139123;27;20035;-71
2022/04/01 01:33:20;;;;;;;40.50;21.30;;;;;;;;;;5122619;27;20023;-72
2022/04/01 01:35:46;;;;;;;33.20;20.00;;;;;;;;;;5140028;27;20019;-72
2022/04/01 01:38:19;;;;;;;60.45;25.75;;;;;;;;;;5140656;27;20147;-72
2022/04/01 01:40:45;;;;;;;74.95;34.70;;;;;;;;;;5139986;27;20019;-72
2022/04/01 01:43:11;;;;;;;73.97;35.03;;;;;;;;;;5139346;27;20359;-72
2022/04/01 01:45:37;;;;;;;46.42;24.20;;;;;;;;;;5139911;27;20023;-72
2022/04/01 01:48:04;;;;;;;47.33;22.63;;;;;;;;;;5122035;27;20062;-72
2022/04/01 01:55:59;;;;;;;52.83;26.45;;;;;;;;;;5138409;27;20026;-72
2022/04/01 01:58:26;;;;;;;53.90;27.95;;;;;;;;;;5121683;27;20049;-72
2022/04/01 02:00:52;;;;;;;50.55;25.75;;;;;;;;;;5140107;27;20015;-72
2022/04/01 02:03:18;;;;;;;53.97;31.30;;;;;;;;;;5139551;27;20019;-72
2022/04/01 02:05:44;;;;;;;66.93;35.63;;;;;;;;;;5121025;27;20351;-72
2022/04/01 02:08:10;;;;;;;102.88;55.17;;;;;;;;;;5139734;27;20097;-72
2022/04/01 02:10:36;;;;;;;89.55;48.42;;;;;;;;;;5138783;27;20029;-71
2022/04/01 02:13:03;;;;;;;104.22;52.00;;;;;;;;;;5138785;27;20026;-71
2022/04/01 02:15:29;;;;;;;74.57;30.23;;;;;;;;;;5139670;27;20019;-72
2022/04/01 02:17:55;;;;;;;72.78;33.92;;;;;;;;;;5139056;27;20068;-72
2022/04/01 02:20:21;;;;;;;73.40;30.88;;;;;;;;;;5139488;27;20102;-72
2022/04/01 02:22:47;;;;;;;81.03;39.20;;;;;;;;;;5139291;27;20027;-72
2022/04/01 02:25:13;;;;;;;64.15;32.50;;;;;;;;;;5138942;27;20022;-72
2022/04/01 02:27:39;;;;;;;61.78;30.45;;;;;;;;;;5140688;27;20026;-72
2022/04/01 02:30:12;;;;;;;50.88;22.35;;;;;;;;;;5140682;27;20050;-73
2022/04/01 02:32:39;;;;;;;46.08;18.75;;;;;;;;;;5139255;27;20027;-72
2022/04/01 02:35:06;;;;;;;48.78;20.02;;;;;;;;;;5139749;27;20055;-73
2022/04/01 02:37:32;;;;;;;43.20;19.77;;;;;;;;;;5139737;27;20078;-72
2022/04/01 02:39:58;;;;;;;50.63;23.08;;;;;;;;;;5139403;27;20023;-73
2022/04/01 02:42:24;;;;;;;46.47;19.88;;;;;;;;;;5121597;27;20015;-72
2022/04/01 02:44:50;;;;;;;61.35;22.88;;;;;;;;;;5141306;27;20019;-73
2022/04/01 02:47:16;;;;;;;56.58;21.05;;;;;;;;;;5140715;27;20131;-73
2022/04/01 02:49:42;;;;;;;43.05;22.60;;;;;;;;;;5137952;27;20427;-73
2022/04/01 02:52:09;;;;;;;41.78;17.85;;;;;;;;;;5137420;27;20039;-73
2022/04/01 02:54:35;;;;;;;80.88;23.20;;;;;;;;;;5103507;27;20023;-72
2022/04/01 02:57:02;;;;;;;70.38;24.33;;;;;;;;;;5100436;27;20068;-72
2022/04/01 02:59:29;;;;;;;41.15;18.23;;;;;;;;;;5136649;27;20046;-72
2022/04/01 03:01:55;;;;;;;36.63;18.02;;;;;;;;;;5117752;27;20046;-72
2022/04/01 03:04:22;;;;;;;48.95;19.98;;;;;;;;;;5135962;27;20023;-72
2022/04/01 03:06:48;;;;;;;37.50;18.17;;;;;;;;;;5117090;27;20011;-72
2022/04/01 03:09:14;;;;;;;48.88;19.90;;;;;;;;;;5135784;27;20025;-72
2022/04/01 03:11:41;;;;;;;39.92;19.65;;;;;;;;;;5135083;27;20046;-72
2022/04/01 03:14:08;;;;;;;48.92;20.02;;;;;;;;;;5117633;27;20110;-72
2022/04/01 03:16:40;;;;;;;34.53;18.23;;;;;;;;;;5136250;27;20019;-72
2022/04/01 03:19:10;;;;;;;48.13;19.23;;;;;;;;;;5135838;27;20064;-72
2022/04/01 03:21:39;;;;;;;48.00;19.55;;;;;;;;;;5136759;27;20022;-73
2022/04/01 03:24:06;;;;;;;45.72;19.98;;;;;;;;;;5118412;27;20027;-72
2022/04/01 03:26:32;;;;;;;44.55;18.30;;;;;;;;;;5136598;27;20011;-72
2022/04/01 03:28:59;;;;;;;36.65;18.55;;;;;;;;;;5118602;27;20026;-73
2022/04/01 03:31:29;;;;;;;37.28;21.95;;;;;;;;;;5104085;27;20100;-72
2022/04/01 03:33:56;;;;;;;40.28;21.17;;;;;;;;;;5103327;27;20437;-72
2022/04/01 03:36:22;;;;;;;52.13;22.20;;;;;;;;;;5138435;27;20023;-72
2022/04/01 03:38:48;;;;;;;56.00;24.63;;;;;;;;;;5136477;27;20019;-72
2022/04/01 03:41:14;;;;;;;51.40;22.38;;;;;;;;;;5137711;27;20015;-72
2022/04/01 03:43:40;;;;;;;47.13;21.83;;;;;;;;;;5118713;27;20054;-72
2022/04/01 03:46:08;;;;;;;51.90;22.50;;;;;;;;;;5137183;27;20019;-73
2022/04/01 03:48:38;;;;;;;34.35;18.17;;;;;;;;;;5118670;27;20016;-73
2022/04/01 03:51:05;;;;;;;46.72;21.38;;;;;;;;;;5118143;27;20015;-71
2022/04/01 03:53:32;;;;;;;53.67;21.23;;;;;;;;;;5137207;27;20027;-72
2022/04/01 03:55:59;;;;;;;42.33;19.17;;;;;;;;;;5136796;27;20015;-72
2022/04/01 03:58:30;;;;;;;36.97;18.98;;;;;;;;;;5135177;27;20015;-72
2022/04/01 04:01:02;;;;;;;48.28;18.75;;;;;;;;;;5137802;27;20034;-72
2022/04/01 04:03:29;;;;;;;52.22;20.63;;;;;;;;;;5118331;27;20012;-72
2022/04/01 04:05:56;;;;;;;40.80;19.15;;;;;;;;;;5135757;27;20047;-72
2022/04/01 04:08:22;;;;;;;58.05;20.88;;;;;;;;;;5136624;27;20415;-71
2022/04/01 04:10:52;;;;;;;44.72;19.63;;;;;;;;;;5136662;27;20023;-72
2022/04/01 04:13:18;;;;;;;;;;;;;;;;;;5117277;27;20027;-71
2022/04/01 04:15:51;;;;;;;59.72;22.23;;;;;;;;;;5116684;28;20197;-71
2022/04/01 04:18:19;;;;;;;49.13;25.02;;;;;;;;;;5135731;28;20019;-72
2022/04/01 04:20:58;;;;;;;53.13;24.08;;;;;;;;;;5116430;28;20374;-72
2022/04/01 04:23:25;;;;;;;59.80;23.27;;;;;;;;;;5134956;28;20103;-72
2022/04/01 04:25:58;;;;;;;59.38;23.65;;;;;;;;;;5134792;28;20011;-72
2022/04/01 04:28:25;;;;;;;43.75;23.60;;;;;;;;;;5135207;28;20051;-73
2022/04/01 04:30:53;;;;;;;50.00;24.88;;;;;;;;;;5134319;28;20034;-71
2022/04/01 04:33:21;;;;;;;56.95;23.85;;;;;;;;;;5134757;28;20385;-72
2022/04/01 04:35:48;;;;;;;43.65;23.48;;;;;;;;;;5116009;28;20019;-74
2022/04/01 04:38:16;;;;;;;42.47;21.55;;;;;;;;;;5116452;28;20035;-76
2022/04/01 04:40:43;;;;;;;50.25;21.27;;;;;;;;;;5134949;28;20030;-77
2022/04/01 04:43:10;;;;;;;52.45;22.92;;;;;;;;;;5135676;28;20504;-74
2022/04/01 04:45:38;;;;;;;46.17;19.83;;;;;;;;;;5135197;28;20289;-75
2022/04/01 04:48:04;;;;;;;53.22;23.08;;;;;;;;;;5135868;28;20019;-76
2022/04/01 04:50:31;;;;;;;48.50;19.33;;;;;;;;;;5117435;28;20026;-76
2022/04/01 04:52:57;;;;;;;37.72;18.02;;;;;;;;;;5134714;28;20027;-77
2022/04/01 04:55:24;;;;;;;42.35;19.75;;;;;;;;;;5137571;28;20026;-75
2022/04/01 04:57:51;;;;;;;55.20;19.98;;;;;;;;;;5119348;28;20015;-75
2022/04/01 05:00:21;;;;;;;42.28;17.35;;;;;;;;;;5138088;28;20038;-75
2022/04/01 05:03:07;;;;;;;33.33;17.83;;;;;;;;;;5107198;22;20030;-76
2022/04/01 05:05:43;;;;;;;50.67;20.23;;;;;;;;;;5060260;28;20110;-75
2022/04/01 05:08:28;;;;;;;36.60;17.65;;;;;;;;;;5076384;28;20023;-74
2022/04/01 05:11:13;;;;;;;46.42;19.90;;;;;;;;;;5095805;28;20481;-75
2022/04/01 05:13:58;;;;;;;37.35;17.17;;;;;;;;;;5096879;28;20131;-75
2022/04/01 05:16:29;;;;;;;44.40;17.58;;;;;;;;;;5096006;28;20405;-75
2022/04/01 05:19:01;;;;;;;36.63;18.05;;;;;;;;;;5119465;22;20052;-79
2022/04/01 05:21:30;;;;;;;43.17;16.98;;;;;;;;;;5084910;28;20020;-81
2022/04/01 05:24:00;;;;;;;44.70;18.15;;;;;;;;;;5104082;28;20031;-81
2022/04/01 05:26:38;;;;;;;35.15;17.92;;;;;;;;;;5084369;28;20052;-81
2022/04/01 05:29:07;;;;;;;35.53;17.38;;;;;;;;;;5152112;22;20089;-77
2022/04/01 05:31:52;;;;;;;29.83;17.07;;;;;;;;;;5101962;28;20286;-75
2022/04/01 05:34:20;;;;;;;34.50;17.70;;;;;;;;;;5121954;28;20031;-76
2022/04/01 05:36:48;;;;;;;37.47;18.35;;;;;;;;;;5119930;28;20013;-75
2022/04/01 05:39:16;;;;;;;44.92;18.77;;;;;;;;;;5120698;28;20120;-76
2022/04/01 05:41:42;;;;;;;40.80;17.88;;;;;;;;;;5101028;28;20039;-73
2022/04/01 05:44:09;;;;;;;45.10;17.00;;;;;;;;;;5119808;28;20019;-74
2022/04/01 05:46:36;;;;;;;32.25;17.58;;;;;;;;;;5120070;28;20087;-76
2022/04/01 05:49:03;;;;;;;35.67;18.33;;;;;;;;;;5098940;28;20019;-75
2022/04/01 05:51:30;;;;;;;32.75;16.55;;;;;;;;;;5119613;28;20024;-76
2022/04/01 05:53:56;;;;;;;44.67;18.52;;;;;;;;;;5121700;28;20035;-76
2022/04/01 05:56:22;;;;;;;42.83;16.98;;;;;;;;;;5118611;28;20125;-75
2022/04/01 05:58:48;;;;;;;41.42;15.40;;;;;;;;;;5122104;28;20019;-75
2022/04/01 06:01:19;;;;;;;25.05;15.93;;;;;;;;;;5116906;28;20072;-76
2022/04/01 06:03:49;;;;;;;28.20;13.70;;;;;;;;;;5098819;28;20030;-76
2022/04/01 06:06:29;;;;;;;22.30;9.68;;;;;;;;;;5118378;28;20420;-76
2022/04/01 06:08:58;;;;;;;37.40;11.75;;;;;;;;;;5117117;28;20024;-75
2022/04/01 06:11:36;;;;;;;22.33;9.50;;;;;;;;;;5116734;28;20023;-76
2022/04/01 06:14:31;;;;;;;22.90;8.60;;;;;;;;;;5083216;28;20035;-74
2022/04/01 06:17:09;;;;;;;27.88;9.63;;;;;;;;;;5071192;28;20028;-77
2022/04/01 06:19:46;;;;;;;15.00;7.93;;;;;;;;;;5084445;28;20022;-76
2022/04/01 06:22:25;;;;;;;21.88;8.45;;;;;;;;;;5085979;28;20077;-76
2022/04/01 06:24:52;;;;;;;23.08;7.68;;;;;;;;;;5106077;28;20019;-75
2022/04/01 06:27:22;;;;;;;24.48;8.85;;;;;;;;;;5119406;28;20028;-76
2022/04/01 06:30:03;;;;;;;17.10;7.60;;;;;;;;;;5100469;28;20129;-76
2022/04/01 06:32:34;;;;;;;19.25;8.68;;;;;;;;;;5083418;28;20082;-76
2022/04/01 06:35:18;;;;;;;21.30;9.25;;;;;;;;;;5118180;28;20019;-75
2022/04/01 06:37:55;;;;;;;29.02;10.15;;;;;;;;;;5099514;28;20091;-75
2022/04/01 06:40:22;;;;;;;20.08;9.60;;;;;;;;;;5100551;28;20019;-75
2022/04/01 06:42:50;;;;;;;15.10;6.43;;;;;;;;;;5118432;28;20081;-75
2022/04/01 06:45:17;;;;;;;21.17;7.10;;;;;;;;;;5100728;28;20425;-75
2022/04/01 06:47:48;;;;;;;20.60;7.60;;;;;;;;;;5143447;22;20066;-77
2022/04/01 06:50:21;;;;;;;20.65;5.93;;;;;;;;;;5141752;27;20434;-76
2022/04/01 06:52:49;;;;;;;15.33;5.63;;;;;;;;;;5142667;27;20026;-76
2022/04/01 06:55:16;;;;;;;15.00;5.47;;;;;;;;;;5124530;27;20056;-75
2022/04/01 06:57:45;;;;;;;23.97;6.33;;;;;;;;;;5125597;27;20436;-76
2022/04/01 07:00:13;;;;;;;22.42;6.00;;;;;;;;;;5124802;27;20019;-76
2022/04/01 07:02:41;;;;;;;14.50;6.43;;;;;;;;;;5148131;22;20043;-77
2022/04/01 07:05:13;;;;;;;14.15;5.95;;;;;;;;;;5117250;28;20020;-75
2022/04/01 07:07:41;;;;;;;7.18;4.05;;;;;;;;;;5084173;28;20031;-76
2022/04/01 07:10:10;;;;;;;16.42;5.28;;;;;;;;;;5105368;27;20026;-75
2022/04/01 07:12:39;;;;;;;16.35;4.45;;;;;;;;;;5102251;27;20039;-74
2022/04/01 07:15:10;;;;;;;17.83;4.63;;;;;;;;;;5118956;27;20034;-72
2022/04/01 07:17:40;;;;;;;27.10;9.55;;;;;;;;;;5103046;27;20039;-73
2022/04/01 07:20:06;;;;;;;;;;;;;;;;;;5102259;27;20021;-72
2022/04/01 07:22:35;;;;;;;19.13;6.20;;;;;;;;;;5117596;27;19903;-75
2022/04/01 07:25:01;;;;;;;19.80;6.07;;;;;;;;;;5133786;27;20015;-74
2022/04/01 07:27:33;;;;;;;21.15;5.55;;;;;;;;;;5136884;27;20015;-73
2022/04/01 07:30:00;;;;;;;11.85;5.68;;;;;;;;;;5136839;27;20298;-74
2022/04/01 07:32:39;;;;;;;19.95;5.05;;;;;;;;;;5137985;27;20039;-73
2022/04/01 07:35:08;;;;;;;13.32;5.13;;;;;;;;;;5119461;27;20015;-74
2022/04/01 07:37:45;;;;;;;;;;;;;;;;;;;;;
2022/04/01 07:40:15;;;;;;;16.45;5.28;;;;;;;;;;5137958;27;20411;-74
2022/04/01 07:42:41;;;;;;;12.23;4.38;;;;;;;;;;5119951;27;20049;-73
2022/04/01 07:45:08;;;;;;;11.02;6.90;;;;;;;;;;5137345;27;20478;-74
2022/04/01 07:47:34;;;;;;;17.77;4.18;;;;;;;;;;5132737;27;20106;-73
2022/04/01 07:50:03;;;;;;;10.05;3.58;;;;;;;;;;5137869;27;20412;-74
2022/04/01 07:52:29;;;;;;;10.15;4.35;;;;;;;;;;5119144;27;20130;-72
2022/04/01 07:54:55;;;;;;;12.98;4.45;;;;;;;;;;5137773;27;20019;-72
2022/04/01 07:57:21;;;;;;;11.43;5.68;;;;;;;;;;5137885;27;20079;-71
2022/04/01 07:59:47;;;;;;;12.13;6.78;;;;;;;;;;5118918;27;20016;-74
2022/04/01 08:02:14;;;;;;;17.58;4.57;;;;;;;;;;5119940;27;20034;-72
2022/04/01 08:04:40;;;;;;;17.48;7.13;;;;;;;;;;5137426;27;20015;-73
2022/04/01 08:07:07;;;;;;;13.90;5.63;;;;;;;;;;5101370;27;20344;-71
2022/04/01 08:09:33;;;;;;;13.82;5.13;;;;;;;;;;5137228;27;20041;-72
2022/04/01 08:12:00;;;;;;;11.00;4.85;;;;;;;;;;5118526;28;20023;-73
2022/04/01 08:14:27;;;;;;;34.60;5.80;;;;;;;;;;5136748;27;20453;-72
2022/04/01 08:16:53;;;;;;;7.72;3.67;;;;;;;;;;5139790;27;20072;-72
2022/04/01 08:19:22;;;;;;;11.00;4.57;;;;;;;;;;5137732;28;20015;-73
2022/04/01 08:21:49;;;;;;;9.85;4.75;;;;;;;;;;5137007;28;20087;-73
2022/04/01 08:24:16;;;;;;;23.60;5.35;;;;;;;;;;5138856;28;20023;-72
2022/04/01 08:26:43;;;;;;;15.02;4.25;;;;;;;;;;5137438;28;20424;-74
2022/04/01 08:29:09;;;;;;;11.07;4.70;;;;;;;;;;5136883;28;20030;-73
2022/04/01 08:31:36;;;;;;;9.23;4.15;;;;;;;;;;5137328;28;20403;-74
2022/04/01 08:34:02;;;;;;;14.73;5.13;;;;;;;;;;5137401;28;20376;-73
2022/04/01 08:36:28;;;;;;;16.77;4.45;;;;;;;;;;5137768;28;20118;-73
2022/04/01 08:38:57;;;;;;;15.15;3.83;;;;;;;;;;5121276;28;20015;-72
2022/04/01 08:41:23;;;;;;;18.65;5.43;;;;;;;;;;5121838;28;20019;-73
2022/04/01 08:43:50;;;;;;;12.52;4.47;;;;;;;;;;5120812;28;20110;-74
2022/04/01 08:46:17;;;;;;;19.30;6.25;;;;;;;;;;5138263;28;20038;-73
2022/04/01 08:48:44;;;;;;;20.70;6.32;;;;;;;;;;5138282;28;20218;-74
2022/04/01 08:51:10;;;;;;;13.65;4.85;;;;;;;;;;5120287;28;20423;-74
2022/04/01 08:53:42;;;;;;;13.18;5.25;;;;;;;;;;5140190;28;20080;-73
2022/04/01 08:56:08;;;;;;;18.35;5.18;;;;;;;;;;5137450;28;20019;-74
2022/04/01 08:58:35;;;;;;;16.35;5.72;;;;;;;;;;5120012;27;20054;-75
2022/04/01 09:01:02;;;;;;;8.50;4.22;;;;;;;;;;5141112;27;20038;-73
2022/04/01 09:03:28;;;;;;;15.40;5.75;;;;;;;;;;5122885;27;20416;-74
2022/04/01 09:05:56;;;;;;;10.27;4.63;;;;;;;;;;5122820;27;20060;-75
2022/04/01 09:08:26;;;;;;;20.05;6.03;;;;;;;;;;5141216;27;20019;-75
2022/04/01 09:10:55;;;;;;;15.90;5.85;;;;;;;;;;5123193;27;20026;-74
2022/04/01 09:13:22;;;;;;;19.60;5.13;;;;;;;;;;5140893;27;20396;-72
2022/04/01 09:15:49;;;;;;;12.60;5.88;;;;;;;;;;5140891;27;20064;-73
2022/04/01 09:18:35;;;;;;;11.52;5.60;;;;;;;;;;5123448;27;20407;-72
2022/04/01 09:21:04;;;;;;;13.80;4.78;;;;;;;;;;5122592;27;20038;-73
2022/04/01 09:23:31;;;;;;;11.05;4.07;;;;;;;;;;5140870;27;20031;-72
2022/04/01 09:25:57;;;;;;;9.00;3.65;;;;;;;;;;5140767;27;20073;-73
2022/04/01 09:28:31;;;;;;;27.92;5.70;;;;;;;;;;5141915;27;20015;-73
2022/04/01 09:31:09;;;;;;;14.15;4.78;;;;;;;;;;5105762;27;20019;-73
2022/04/01 09:33:45;;;;;;;12.05;3.92;;;;;;;;;;5140609;27;20031;-72
2022/04/01 09:36:12;;;;;;;16.00;6.93;;;;;;;;;;5140350;27;20030;-72
2022/04/01 09:38:38;;;;;;;11.43;4.38;;;;;;;;;;5140316;27;20332;-72
2022/04/01 09:41:06;;;;;;;22.45;5.63;;;;;;;;;;5122349;27;20053;-73
2022/04/01 09:43:38;;;;;;;8.13;3.55;;;;;;;;;;5140419;27;20102;-73
2022/04/01 09:46:05;;;;;;;12.18;3.67;;;;;;;;;;5141074;27;20018;-73
2022/04/01 09:48:40;;;;;;;11.65;3.10;;;;;;;;;;5140893;27;20019;-73
2022/04/01 09:51:08;;;;;;;14.75;5.18;;;;;;;;;;5121632;27;20418;-73
2022/04/01 09:53:35;;;;;;;9.35;3.80;;;;;;;;;;5140491;27;20080;-73
2022/04/01 09:56:01;;;;;;;14.15;4.63;;;;;;;;;;5139235;27;20038;-72
2022/04/01 09:58:27;;;;;;;14.38;4.82;;;;;;;;;;5140648;27;20416;-73
2022/04/01 10:00:56;;;;;;;9.60;4.88;;;;;;;;;;5140611;27;20504;-73
2022/04/01 10:03:22;;;;;;;13.63;5.10;;;;;;;;;;5140512;27;20122;-73
2022/04/01 10:05:49;;;;;;;12.65;4.47;;;;;;;;;;5139965;27;20432;-72
2022/04/01 10:08:15;;;;;;;19.08;5.90;;;;;;;;;;5121965;27;20019;-72
2022/04/01 10:10:42;;;;;;;11.43;4.43;;;;;;;;;;5139664;27;20491;-73
2022/04/01 10:13:15;;;;;;;20.75;4.25;;;;;;;;;;5140415;27;20031;-73
2022/04/01 10:15:44;;;;;;;15.13;5.97;;;;;;;;;;5139897;27;20015;-72
2022/04/01 10:18:10;;;;;;;35.33;7.38;;;;;;;;;;5139741;27;20075;-72
2022/04/01 10:20:37;;;;;;;14.57;6.13;;;;;;;;;;5140535;27;20098;-73
2022/04/01 10:23:04;;;;;;;21.52;5.47;;;;;;;;;;5140116;27;20301;-73
2022/04/01 10:25:36;;;;;;;11.70;5.20;;;;;;;;;;5121666;27;20023;-73
2022/04/01 10:28:03;;;;;;;15.55;5.95;;;;;;;;;;5122593;27;20015;-72
2022/04/01 10:30:31;;;;;;;21.88;5.57;;;;;;;;;;5139807;27;20384;-72
2022/04/01 10:32:57;;;;;;;21.42;6.47;;;;;;;;;;5139979;27;20027;-73
2022/04/01 10:35:27;;;;;;;16.58;5.93;;;;;;;;;;5139949;27;20072;-73
2022/04/01 10:37:55;;;;;;;13.98;6.50;;;;;;;;;;5121617;27;20076;-73
2022/04/01 10:40:21;;;;;;;21.77;6.15;;;;;;;;;;5139315;27;20037;-72
2022/04/01 10:42:47;;;;;;;19.70;7.13;;;;;;;;;;5139335;27;20382;-73
2022/04/01 10:45:13;;;;;;;10.75;5.35;;;;;;;;;;5121202;27;20048;-73
2022/04/01 10:53:34;;;;;;;18.50;5.50;;;;;;;;;;5139350;27;20039;-72
2022/04/01 10:56:19;;;;;;;18.88;6.47;;;;;;;;;;5139643;27;20023;-72
2022/04/01 10:59:00;;;;;;;15.27;6.22;;;;;;;;;;5121040;27;20038;-73
2022/04/01 11:01:26;;;;;;;21.52;6.60;;;;;;;;;;5121447;27;20324;-72
2022/04/01 11:03:52;;;;;;;17.73;7.07;;;;;;;;;;5139585;27;20331;-73
2022/04/01 11:06:22;;;;;;;18.25;6.60;;;;;;;;;;5139386;27;20094;-74
2022/04/01 11:08:52;;;;;;;13.38;4.53;;;;;;;;;;5140141;27;20022;-72
2022/04/01 11:11:18;;;;;;;10.68;5.85;;;;;;;;;;5139392;27;20015;-73
2022/04/01 11:14:00;;;;;;;17.02;7.60;;;;;;;;;;5139195;27;20084;-72
2022/04/01 11:16:27;;;;;;;16.33;7.97;;;;;;;;;;5139341;27;20020;-72
2022/04/01 11:19:13;;;;;;;12.40;6.03;;;;;;;;;;5120901;27;20087;-73
2022/04/01 11:21:39;;;;;;;16.63;4.95;;;;;;;;;;5137918;27;20030;-72
2022/04/01 11:24:21;;;;;;;27.00;4.55;;;;;;;;;;5139001;27;20019;-72
2022/04/01 11:26:47;;;;;;;30.02;7.55;;;;;;;;;;5120025;27;20023;-72
2022/04/01 11:29:23;;;;;;;21.55;5.63;;;;;;;;;;5138778;27;20442;-72
2022/04/01 11:31:50;;;;;;;17.92;5.35;;;;;;;;;;5138974;27;20026;-72
2022/04/01 11:34:16;;;;;;;16.88;6.57;;;;;;;;;;5138995;27;20374;-72
2022/04/01 11:36:42;;;;;;;38.97;6.75;;;;;;;;;;5120293;27;20019;-70
2022/04/01 11:39:14;;;;;;;16.05;4.90;;;;;;;;;;5138792;27;20106;-72
2022/04/01 11:41:47;;;;;;;17.88;4.95;;;;;;;;;;5138800;27;20030;-71
2022/04/01 11:44:14;;;;;;;19.90;6.32;;;;;;;;;;5138636;27;20019;-71
2022/04/01 11:46:40;;;;;;;7.75;5.55;;;;;;;;;;5138582;27;20412;-71
2022/04/01 11:49:08;;;;;;;24.70;8.00;;;;;;;;;;5138509;27;20023;-71
2022/04/01 11:51:38;;;;;;;34.70;8.13;;;;;;;;;;5120315;27;20038;-71
2022/04/01 11:54:09;;;;;;;72.70;13.85;;;;;;;;;;5138352;27;20113;-71
2022/04/01 11:56:35;;;;;;;61.42;8.65;;;;;;;;;;5138548;27;20042;-71
2022/04/01 11:59:03;;;;;;;36.20;9.32;;;;;;;;;;5138207;27;20432;-71
2022/04/01 12:01:31;;;;;;;40.72;7.90;;;;;;;;;;5138699;27;20057;-71
2022/04/01 12:04:07;;;;;;;22.48;5.03;;;;;;;;;;5138305;27;20051;-70
2022/04/01 12:09:17;;;;;;;16.58;5.70;;;;;;;;;;5138172;27;20068;-71
2022/04/01 12:11:47;;;;;;;31.17;6.43;;;;;;;;;;5138443;27;20019;-73
2022/04/01 12:14:22;;;;;;;41.90;6.07;;;;;;;;;;5139638;27;20027;-71
2022/04/01 12:16:48;;;;;;;31.45;7.90;;;;;;;;;;5138382;27;20019;-71
2022/04/01 12:19:17;;;;;;;33.13;7.55;;;;;;;;;;5137742;28;20310;-71
2022/04/01 12:21:46;;;;;;;92.63;10.52;;;;;;;;;;5138052;28;20019;-71
2022/04/01 12:24:12;;;;;;;55.60;8.07;;;;;;;;;;5138105;28;20438;-71
2022/04/01 12:26:39;;;;;;;26.95;6.20;;;;;;;;;;5138100;28;20098;-71
2022/04/01 12:29:17;;;;;;;16.73;4.22;;;;;;;;;;5138199;28;20079;-71
2022/04/01 12:31:48;;;;;;;10.20;3.78;;;;;;;;;;5137937;28;20027;-71
2022/04/01 12:34:14;;;;;;;14.57;3.88;;;;;;;;;;5121737;27;20039;-71
2022/04/01 12:36:40;;;;;;;10.18;4.22;;;;;;;;;;5142247;27;20155;-71
2022/04/01 12:39:10;;;;;;;17.95;4.15;;;;;;;;;;5141966;27;20030;-71
2022/04/01 12:41:48;;;;;;;18.35;4.25;;;;;;;;;;5142256;27;20452;-71
2022/04/01 12:44:14;;;;;;;20.40;6.25;;;;;;;;;;5142294;27;20476;-71
2022/04/01 12:46:46;;;;;;;31.27;5.63;;;;;;;;;;5141592;27;20119;-71
2022/04/01 12:49:13;;;;;;;46.80;10.60;;;;;;;;;;5142118;27;20421;-71
2022/04/01 12:51:42;;;;;;;16.33;5.00;;;;;;;;;;5141271;27;20420;-71
2022/04/01 12:54:10;;;;;;;22.23;5.68;;;;;;;;;;5141665;27;20027;-71
2022/04/01 12:56:37;;;;;;;30.60;7.07;;;;;;;;;;5141765;27;20015;-71
2022/04/01 12:59:07;;;;;;;11.98;4.07;;;;;;;;;;5106557;27;20100;-71
2022/04/01 13:01:34;;;;;;;19.35;5.75;;;;;;;;;;5141750;27;20023;-71
2022/04/01 13:04:00;;;;;;;16.25;5.32;;;;;;;;;;5141612;27;20035;-71
2022/04/01 13:06:27;;;;;;;21.60;6.88;;;;;;;;;;5123579;27;20019;-71
2022/04/01 13:08:58;;;;;;;20.90;6.60;;;;;;;;;;5141756;27;20019;-71
2022/04/01 13:11:32;;;;;;;28.95;5.32;;;;;;;;;;5141106;27;20018;-71
2022/04/01 13:13:58;;;;;;;19.75;4.72;;;;;;;;;;5141558;27;20023;-71
2022/04/01 13:16:24;;;;;;;22.73;5.28;;;;;;;;;;5141541;27;20015;-71
2022/04/01 13:18:50;;;;;;;28.25;6.82;;;;;;;;;;5141462;27;20034;-71
2022/04/01 13:21:17;;;;;;;17.38;6.32;;;;;;;;;;5140985;27;20023;-71
2022/04/01 13:23:43;;;;;;;22.80;5.20;;;;;;;;;;5141446;27;20023;-71
2022/04/01 13:26:09;;;;;;;26.50;6.30;;;;;;;;;;5141430;27;20067;-71
2022/04/01 13:28:35;;;;;;;25.65;7.90;;;;;;;;;;5141281;27;20067;-71
2022/04/01 13:31:06;;;;;;;29.13;8.20;;;;;;;;;;5140771;27;20106;-71
2022/04/01 13:33:31;;;;;;;;;;;;;;;;;;5141053;27;20459;-71
2022/04/01 13:35:57;;;;;;;17.05;5.57;;;;;;;;;;5141284;27;19936;-71
2022/04/01 13:38:23;;;;;;;18.20;7.25;;;;;;;;;;5141012;27;20015;-71
2022/04/01 13:40:49;;;;;;;19.45;6.65;;;;;;;;;;5140633;27;20105;-71
2022/04/01 13:43:15;;;;;;;28.45;7.32;;;;;;;;;;5140569;27;20443;-71
2022/04/01 13:45:42;;;;;;;35.80;7.28;;;;;;;;;;5139715;27;20042;-71
2022/04/01 13:48:08;;;;;;;25.02;8.10;;;;;;;;;;5140893;27;20019;-71
2022/04/01 13:50:35;;;;;;;35.58;10.65;;;;;;;;;;5140637;27;20331;-71
2022/04/01 13:53:01;;;;;;;30.10;13.75;;;;;;;;;;5140872;27;20027;-71
2022/04/01 13:55:27;;;;;;;69.13;29.38;;;;;;;;;;5140806;27;20015;-71
2022/04/01 13:57:53;;;;;;;198.52;100.50;;;;;;;;;;5140233;27;20019;-71
2022/04/01 14:00:21;;;;;;;175.70;94.97;;;;;;;;;;5140138;27;20309;-71
2022/04/01 14:02:47;;;;;;;162.90;85.60;;;;;;;;;;5122253;27;20035;-72
2022/04/01 14:05:13;;;;;;;158.88;73.72;;;;;;;;;;5140106;27;20022;-71
2022/04/01 14:07:39;;;;;;;137.80;59.75;;;;;;;;;;5140576;27;20023;-71
2022/04/01 14:10:05;;;;;;;134.57;60.60;;;;;;;;;;5140062;27;20022;-71
2022/04/01 14:12:31;;;;;;;144.77;62.58;;;;;;;;;;5140694;27;20031;-71
2022/04/01 14:14:57;;;;;;;127.18;53.60;;;;;;;;;;5122141;27;20025;-71
2022/04/01 14:17:23;;;;;;;121.15;53.35;;;;;;;;;;5140096;27;20019;-71
2022/04/01 14:19:49;;;;;;;132.48;53.38;;;;;;;;;;5122010;27;20335;-71
2022/04/01 14:22:15;;;;;;;117.95;55.60;;;;;;;;;;5121659;27;20446;-71
2022/04/01 14:24:41;;;;;;;105.97;45.88;;;;;;;;;;5140394;27;20023;-72
2022/04/01 14:27:07;;;;;;;113.40;45.10;;;;;;;;;;5140472;27;20020;-70
2022/04/01 14:32:17;;;;;;;119.25;50.47;;;;;;;;;;5140168;27;20023;-70
2022/04/01 14:34:43;;;;;;;210.35;86.57;;;;;;;;;;5139491;27;20076;-71
2022/04/01 14:37:10;;;;;;;171.45;70.82;;;;;;;;;;5121311;27;20424;-71
2022/04/01 14:39:36;;;;;;;123.00;56.08;;;;;;;;;;5140064;27;20030;-70
2022/04/01 14:42:02;;;;;;;133.30;55.05;;;;;;;;;;5143886;27;20027;-71
2022/04/01 14:44:29;;;;;;;136.05;57.95;;;;;;;;;;5121071;27;20026;-70
2022/04/01 14:46:56;;;;;;;121.65;43.72;;;;;;;;;;5121169;27;20030;-70
2022/04/01 14:49:22;;;;;;;90.93;41.92;;;;;;;;;;5121082;27;20308;-70
2022/04/01 14:51:48;;;;;;;92.88;40.10;;;;;;;;;;5139743;27;20140;-71